sensor_id;sensor_type;location;lat;lon;timestamp;pressure;altitude;pressure_sealevel;temperature;humidity
17450;BME280;8842;51.244;7.102;2022-10-16T00:09:35;98970.99;;;13.95;100.00
17450;BME280;8842;51.244;7.102;2022-10-16T00:19:52;98958.31;;;14.11;100.00
17450;BME280;8842;51.244;7.102;2022-10-16T00:30:11;98980.20;;;14.14;100.00
17450;BME280;8842;51.244;7.102;2022-10-16T00:45:41;98992.88;;;14.12;100.00
17450;BME280;8842;51.244;7.102;2022-10-16T00:55:59;98978.05;;;14.14;100.00
17450;BME280;8842;51.244;7.102;2022-10-16T01:06:24;98982.34;;;13.93;100.00
17450;BME280;8842;51.244;7.102;2022-10-16T01:16:44;98985.53;;;13.96;100.00
17450;BME280;8842;51.244;7.102;2022-10-16T01:27:36;98995.36;;;13.96;100.00
17450;BME280;8842;51.244;7.102;2022-10-16T01:37:59;98994.95;;;13.87;100.00
17450;BME280;8842;51.244;7.102;2022-10-16T01:48:24;98986.35;;;13.79;100.00
17450;BME280;8842;51.244;7.102;2022-10-16T01:58:45;98990.80;;;13.75;100.00
17450;BME280;8842;51.244;7.102;2022-10-16T02:09:03;98996.33;;;13.77;100.00
17450;BME280;8842;51.244;7.102;2022-10-16T02:19:22;98992.51;;;13.80;100.00
17450;BME280;8842;51.244;7.102;2022-10-16T02:29:40;98997.63;;;13.73;100.00
17450;BME280;8842;51.244;7.102;2022-10-16T02:45:14;99006.41;;;13.83;100.00
17450;BME280;8842;51.244;7.102;2022-10-16T02:55:32;99002.96;;;13.73;100.00
17450;BME280;8842;51.244;7.102;2022-10-16T03:05:48;98998.95;;;13.73;100.00
17450;BME280;8842;51.244;7.102;2022-10-16T03:16:06;99005.97;;;13.74;100.00
17450;BME280;8842;51.244;7.102;2022-10-16T03:36:53;98987.09;;;13.72;100.00
17450;BME280;8842;51.244;7.102;2022-10-16T03:47:09;99011.94;;;13.72;100.00
17450;BME280;8842;51.244;7.102;2022-10-16T04:02:41;99005.92;;;13.70;100.00
17450;BME280;8842;51.244;7.102;2022-10-16T04:12:59;99019.72;;;13.66;100.00
17450;BME280;8842;51.244;7.102;2022-10-16T04:28:33;99049.05;;;13.52;100.00
17450;BME280;8842;51.244;7.102;2022-10-16T04:38:52;99049.44;;;13.44;100.00
17450;BME280;8842;51.244;7.102;2022-10-16T04:49:10;99058.92;;;13.42;100.00
17450;BME280;8842;51.244;7.102;2022-10-16T05:09:56;99079.84;;;13.37;100.00
17450;BME280;8842;51.244;7.102;2022-10-16T05:20:20;99074.17;;;13.36;100.00
17450;BME280;8842;51.244;7.102;2022-10-16T05:30:38;99094.80;;;13.34;100.00
17450;BME280;8842;51.244;7.102;2022-10-16T05:40:55;99127.23;;;13.39;100.00
17450;BME280;8842;51.244;7.102;2022-10-16T05:51:14;99101.61;;;13.33;100.00
17450;BME280;8842;51.244;7.102;2022-10-16T06:01:33;99138.39;;;13.29;100.00
17450;BME280;8842;51.244;7.102;2022-10-16T06:11:50;99148.77;;;13.32;100.00
17450;BME280;8842;51.244;7.102;2022-10-16T06:22:07;99161.48;;;13.34;100.00
17450;BME280;8842;51.244;7.102;2022-10-16T06:32:25;99177.12;;;13.52;100.00
17450;BME280;8842;51.244;7.102;2022-10-16T06:42:56;99186.98;;;13.65;100.00
17450;BME280;8842;51.244;7.102;2022-10-16T06:48:00;99191.18;;;13.77;100.00
17450;BME280;8842;51.244;7.102;2022-10-16T06:58:16;99203.94;;;13.93;100.00
17450;BME280;8842;51.244;7.102;2022-10-16T07:03:20;99215.86;;;13.98;100.00
17450;BME280;8842;51.244;7.102;2022-10-16T07:08:24;99234.94;;;14.03;100.00
17450;BME280;8842;51.244;7.102;2022-10-16T07:18:40;99253.72;;;14.31;100.00
17450;BME280;8842;51.244;7.102;2022-10-16T07:28:56;99267.94;;;14.31;100.00
17450;BME280;8842;51.244;7.102;2022-10-16T07:39:12;99279.11;;;14.31;100.00
17450;BME280;8842;51.244;7.102;2022-10-16T07:49:31;99292.47;;;14.31;100.00
17450;BME280;8842;51.244;7.102;2022-10-16T07:59:48;99295.48;;;14.22;100.00
17450;BME280;8842;51.244;7.102;2022-10-16T08:10:09;99321.98;;;14.39;100.00
17450;BME280;8842;51.244;7.102;2022-10-16T08:20:29;99333.86;;;14.77;100.00
17450;BME280;8842;51.244;7.102;2022-10-16T08:30:46;99346.75;;;15.45;100.00
17450;BME280;8842;51.244;7.102;2022-10-16T08:41:27;99358.23;;;15.55;100.00
17450;BME280;8842;51.244;7.102;2022-10-16T08:51:48;99381.18;;;15.71;100.00
17450;BME280;8842;51.244;7.102;2022-10-16T09:02:21;99393.62;;;16.33;100.00
17450;BME280;8842;51.244;7.102;2022-10-16T09:12:44;99400.39;;;16.23;100.00
17450;BME280;8842;51.244;7.102;2022-10-16T09:23:14;99405.11;;;16.25;100.00
17450;BME280;8842;51.244;7.102;2022-10-16T09:33:36;99411.44;;;17.10;100.00
17450;BME280;8842;51.244;7.102;2022-10-16T09:43:55;99432.83;;;17.32;100.00
17450;BME280;8842;51.244;7.102;2022-10-16T09:54:18;99434.25;;;17.10;100.00
17450;BME280;8842;51.244;7.102;2022-10-16T10:04:41;99435.11;;;17.15;100.00
17450;BME280;8842;51.244;7.102;2022-10-16T10:09:46;99440.55;;;17.31;100.00
17450;BME280;8842;51.244;7.102;2022-10-16T10:20:15;99440.65;;;17.17;100.00
17450;BME280;8842;51.244;7.102;2022-10-16T10:30:42;99428.65;;;17.00;100.00
17450;BME280;8842;51.244;7.102;2022-10-16T10:41:05;99439.95;;;17.15;100.00
17450;BME280;8842;51.244;7.102;2022-10-16T10:51:27;99447.75;;;17.26;100.00
17450;BME280;8842;51.244;7.102;2022-10-16T11:01:52;99449.15;;;17.38;100.00
17450;BME280;8842;51.244;7.102;2022-10-16T11:12:14;99463.31;;;17.48;100.00
17450;BME280;8842;51.244;7.102;2022-10-16T11:22:35;99454.93;;;17.47;100.00
17450;BME280;8842;51.244;7.102;2022-10-16T11:33:22;99461.98;;;17.52;100.00
17450;BME280;8842;51.244;7.102;2022-10-16T11:38:15;99464.98;;;17.45;100.00
17450;BME280;8842;51.244;7.102;2022-10-16T11:48:35;99456.09;;;17.95;100.00
17450;BME280;8842;51.244;7.102;2022-10-16T11:59:01;99459.11;;;17.88;99.67
17450;BME280;8842;51.244;7.102;2022-10-16T12:09:28;99470.30;;;17.79;100.00
17450;BME280;8842;51.244;7.102;2022-10-16T12:14:36;99473.69;;;17.81;100.00
17450;BME280;8842;51.244;7.102;2022-10-16T12:24:55;99485.48;;;18.00;100.00
17450;BME280;8842;51.244;7.102;2022-10-16T12:35:19;99487.00;;;18.03;100.00
17450;BME280;8842;51.244;7.102;2022-10-16T12:45:39;99477.88;;;17.83;99.34
17450;BME280;8842;51.244;7.102;2022-10-16T12:56:01;99482.11;;;17.94;100.00
17450;BME280;8842;51.244;7.102;2022-10-16T13:06:24;99477.98;;;18.16;98.95
17450;BME280;8842;51.244;7.102;2022-10-16T13:16:52;99482.70;;;18.22;100.00
17450;BME280;8842;51.244;7.102;2022-10-16T13:32:27;99472.78;;;18.30;100.00
17450;BME280;8842;51.244;7.102;2022-10-16T13:37:31;99479.16;;;18.21;100.00
17450;BME280;8842;51.244;7.102;2022-10-16T13:42:35;99496.63;;;18.25;100.00
17450;BME280;8842;51.244;7.102;2022-10-16T13:52:50;99482.17;;;18.22;98.72
17450;BME280;8842;51.244;7.102;2022-10-16T14:03:11;99480.97;;;18.05;98.92
17450;BME280;8842;51.244;7.102;2022-10-16T14:08:13;99483.33;;;18.12;99.28
17450;BME280;8842;51.244;7.102;2022-10-16T14:18:31;99479.98;;;18.18;95.16
17450;BME280;8842;51.244;7.102;2022-10-16T14:28:47;99498.17;;;18.32;98.64
17450;BME280;8842;51.244;7.102;2022-10-16T14:39:04;99498.52;;;18.37;96.12
17450;BME280;8842;51.244;7.102;2022-10-16T14:49:22;99474.96;;;18.23;96.64
17450;BME280;8842;51.244;7.102;2022-10-16T14:59:40;99477.67;;;18.31;97.52
17450;BME280;8842;51.244;7.102;2022-10-16T15:04:47;99479.67;;;18.25;97.17
17450;BME280;8842;51.244;7.102;2022-10-16T15:09:51;99507.55;;;18.24;97.77
17450;BME280;8842;51.244;7.102;2022-10-16T15:14:56;99502.86;;;18.26;95.36
17450;BME280;8842;51.244;7.102;2022-10-16T15:30:26;99499.35;;;18.29;99.08
17450;BME280;8842;51.244;7.102;2022-10-16T15:40:42;99493.09;;;18.17;99.51
17450;BME280;8842;51.244;7.102;2022-10-16T15:50:58;99470.55;;;17.94;100.00
17450;BME280;8842;51.244;7.102;2022-10-16T16:01:16;99478.62;;;17.30;100.00
17450;BME280;8842;51.244;7.102;2022-10-16T16:06:21;99474.06;;;17.23;100.00
17450;BME280;8842;51.244;7.102;2022-10-16T16:11:27;99468.83;;;17.17;100.00
17450;BME280;8842;51.244;7.102;2022-10-16T16:21:42;99470.55;;;17.22;100.00
17450;BME280;8842;51.244;7.102;2022-10-16T16:31:57;99464.58;;;17.40;100.00
17450;BME280;8842;51.244;7.102;2022-10-16T16:37:02;99469.56;;;17.31;100.00
17450;BME280;8842;51.244;7.102;2022-10-16T16:42:07;99462.84;;;17.27;100.00
17450;BME280;8842;51.244;7.102;2022-10-16T16:52:22;99466.92;;;17.35;100.00
17450;BME280;8842;51.244;7.102;2022-10-16T17:02:39;99490.49;;;17.45;100.00
17450;BME280;8842;51.244;7.102;2022-10-16T17:07:46;99498.12;;;17.32;100.00
17450;BME280;8842;51.244;7.102;2022-10-16T17:12:50;99505.22;;;17.41;100.00
17450;BME280;8842;51.244;7.102;2022-10-16T17:23:05;99497.64;;;17.37;100.00
17450;BME280;8842;51.244;7.102;2022-10-16T17:33:22;99513.91;;;17.35;100.00
17450;BME280;8842;51.244;7.102;2022-10-16T17:38:26;99513.23;;;17.37;100.00
17450;BME280;8842;51.244;7.102;2022-10-16T17:48:42;99516.92;;;17.36;100.00
17450;BME280;8842;51.244;7.102;2022-10-16T17:59:01;99525.16;;;17.39;100.00
17450;BME280;8842;51.244;7.102;2022-10-16T18:09:19;99536.92;;;17.42;100.00
17450;BME280;8842;51.244;7.102;2022-10-16T18:14:23;99528.67;;;17.35;100.00
17450;BME280;8842;51.244;7.102;2022-10-16T18:24:39;99533.89;;;17.37;100.00
17450;BME280;8842;51.244;7.102;2022-10-16T18:34:54;99528.79;;;17.30;100.00
17450;BME280;8842;51.244;7.102;2022-10-16T18:39:58;99528.59;;;17.23;100.00
17450;BME280;8842;51.244;7.102;2022-10-16T18:50:14;99520.48;;;17.15;100.00
17450;BME280;8842;51.244;7.102;2022-10-16T19:00:29;99534.66;;;17.04;100.00
17450;BME280;8842;51.244;7.102;2022-10-16T19:10:45;99547.90;;;17.27;100.00
17450;BME280;8842;51.244;7.102;2022-10-16T19:21:04;99565.20;;;17.46;100.00
17450;BME280;8842;51.244;7.102;2022-10-16T19:31:22;99591.38;;;17.26;100.00
17450;BME280;8842;51.244;7.102;2022-10-16T19:41:38;99592.31;;;17.17;100.00
17450;BME280;8842;51.244;7.102;2022-10-16T19:51:53;99631.93;;;17.19;100.00
17450;BME280;8842;51.244;7.102;2022-10-16T20:02:09;99601.03;;;16.98;100.00
17450;BME280;8842;51.244;7.102;2022-10-16T20:07:14;99586.30;;;16.80;100.00
17450;BME280;8842;51.244;7.102;2022-10-16T20:17:29;99597.80;;;16.94;100.00
17450;BME280;8842;51.244;7.102;2022-10-16T20:27:44;99598.61;;;17.08;100.00
17450;BME280;8842;51.244;7.102;2022-10-16T20:38:06;99597.40;;;17.03;100.00
17450;BME280;8842;51.244;7.102;2022-10-16T20:43:12;99594.81;;;16.97;100.00
17450;BME280;8842;51.244;7.102;2022-10-16T20:53:28;99599.08;;;17.04;100.00
17450;BME280;8842;51.244;7.102;2022-10-16T21:03:44;99600.50;;;17.12;100.00
17450;BME280;8842;51.244;7.102;2022-10-16T21:14:03;99594.52;;;17.22;100.00
17450;BME280;8842;51.244;7.102;2022-10-16T21:24:19;99594.30;;;17.15;100.00
17450;BME280;8842;51.244;7.102;2022-10-16T21:34:34;99588.57;;;17.10;100.00
17450;BME280;8842;51.244;7.102;2022-10-16T21:39:39;99595.05;;;17.04;100.00
17450;BME280;8842;51.244;7.102;2022-10-16T21:49:54;99592.20;;;17.05;100.00
17450;BME280;8842;51.244;7.102;2022-10-16T22:00:10;99585.50;;;17.05;100.00
17450;BME280;8842;51.244;7.102;2022-10-16T22:10:27;99590.30;;;16.98;100.00
17450;BME280;8842;51.244;7.102;2022-10-16T22:15:31;99579.17;;;16.93;100.00
17450;BME280;8842;51.244;7.102;2022-10-16T22:25:46;99579.41;;;16.99;100.00
17450;BME280;8842;51.244;7.102;2022-10-16T22:36:02;99578.14;;;17.07;100.00
17450;BME280;8842;51.244;7.102;2022-10-16T22:41:08;99574.05;;;16.99;100.00
17450;BME280;8842;51.244;7.102;2022-10-16T22:51:25;99558.84;;;17.08;100.00
17450;BME280;8842;51.244;7.102;2022-10-16T23:01:41;99568.64;;;17.17;100.00
17450;BME280;8842;51.244;7.102;2022-10-16T23:06:45;99559.36;;;17.07;100.00
17450;BME280;8842;51.244;7.102;2022-10-16T23:17:00;99568.64;;;17.17;100.00
17450;BME280;8842;51.244;7.102;2022-10-16T23:27:16;99574.14;;;17.11;100.00
17450;BME280;8842;51.244;7.102;2022-10-16T23:37:31;99585.67;;;17.08;100.00
17450;BME280;8842;51.244;7.102;2022-10-16T23:42:35;99588.67;;;17.05;100.00
17450;BME280;8842;51.244;7.102;2022-10-16T23:52:53;99587.72;;;17.10;100.00
